createdAt,value
2022-11-16T00:01:37.608Z,20.92
2022-11-16T00:04:05.024Z,19.02
2022-11-16T00:06:32.105Z,21.77
2022-11-16T00:09:20.086Z,19.20
2022-11-16T00:11:49.618Z,19.83
2022-11-16T00:14:16.950Z,18.90
2022-11-16T00:16:44.462Z,17.50
2022-11-16T00:19:12.513Z,19.02
2022-11-16T00:21:40.216Z,20.27
2022-11-16T00:24:07.526Z,18.15
2022-11-16T00:26:34.641Z,17.35
2022-11-16T00:29:01.726Z,16.95
2022-11-16T00:31:28.782Z,17.80
2022-11-16T00:33:55.842Z,16.45
2022-11-16T00:36:22.911Z,17.13
2022-11-16T00:38:54.095Z,16.73
2022-11-16T00:41:21.561Z,15.50
2022-11-16T00:43:48.763Z,15.90
2022-11-16T00:46:15.883Z,14.52
2022-11-16T00:48:42.945Z,14.48
2022-11-16T00:51:10.091Z,15.27
2022-11-16T00:53:37.177Z,14.27
2022-11-16T00:56:05.153Z,14.18
2022-11-16T00:58:38.928Z,13.95
2022-11-16T01:01:10.001Z,14.10
2022-11-16T01:03:38.172Z,13.80
2022-11-16T01:06:07.903Z,14.07
2022-11-16T01:08:37.161Z,14.10
2022-11-16T01:11:23.646Z,13.65
2022-11-16T01:13:50.711Z,14.10
2022-11-16T01:16:20.190Z,13.70
2022-11-16T01:18:52.371Z,14.20
2022-11-16T01:21:20.404Z,14.98
2022-11-16T01:23:47.551Z,14.07
2022-11-16T01:26:14.727Z,15.70
2022-11-16T01:28:42.730Z,15.77
2022-11-16T01:31:11.349Z,14.05
2022-11-16T01:33:39.224Z,13.40
2022-11-16T01:38:45.735Z,16.05
2022-11-16T01:41:16.525Z,14.77
2022-11-16T01:44:06.625Z,15.27
2022-11-16T01:46:39.040Z,14.60
2022-11-16T01:49:16.684Z,14.15
2022-11-16T01:51:49.532Z,14.25
2022-11-16T01:54:17.219Z,14.07
2022-11-16T01:56:57.117Z,13.50
2022-11-16T01:59:46.352Z,14.15
2022-11-16T02:02:17.624Z,14.00
2022-11-16T02:04:47.889Z,13.55
2022-11-16T02:08:11.255Z,13.05
2022-11-16T02:10:58.752Z,14.73
2022-11-16T02:13:29.673Z,14.25
2022-11-16T02:16:21.392Z,12.27
2022-11-16T02:19:00.106Z,12.32
2022-11-16T02:21:52.382Z,11.55
2022-11-16T02:24:52.101Z,11.65
2022-11-16T02:27:43.707Z,12.90
2022-11-16T02:30:10.989Z,11.50
2022-11-16T02:32:52.602Z,11.27
2022-11-16T02:35:33.214Z,11.63
2022-11-16T02:38:11.726Z,11.15
2022-11-16T02:40:43.132Z,11.85
2022-11-16T02:43:14.204Z,12.07
2022-11-16T02:45:45.980Z,10.75
2022-11-16T02:48:22.481Z,12.15
2022-11-16T02:50:52.903Z,11.90
2022-11-16T02:55:52.687Z,12.38
2022-11-16T02:58:26.262Z,11.88
2022-11-16T03:01:06.889Z,11.38
2022-11-16T03:03:57.412Z,11.70
2022-11-16T03:06:32.716Z,11.27
2022-11-16T03:09:05.972Z,12.70
2022-11-16T03:11:56.025Z,13.02
2022-11-16T03:14:27.512Z,11.60
2022-11-16T03:17:00.170Z,12.85
2022-11-16T03:19:56.386Z,11.60
2022-11-16T03:22:42.454Z,11.65
2022-11-16T03:25:13.945Z,10.60
2022-11-16T03:27:54.802Z,10.02
2022-11-16T03:30:25.877Z,9.82
2022-11-16T03:33:04.330Z,9.82
2022-11-16T03:35:38.960Z,9.70
2022-11-16T03:38:09.220Z,9.55
2022-11-16T03:40:40.338Z,10.43
2022-11-16T03:43:09.285Z,10.00
2022-11-16T03:45:37.853Z,13.85
2022-11-16T03:48:07.069Z,9.88
2022-11-16T03:50:34.237Z,9.35
2022-11-16T03:53:02.254Z,9.95
2022-11-16T03:55:29.787Z,10.00
2022-11-16T03:57:56.911Z,9.90
2022-11-16T04:00:24.725Z,11.05
2022-11-16T04:02:53.624Z,9.70
2022-11-16T04:05:41.427Z,9.95
2022-11-16T04:08:36.373Z,9.60
2022-11-16T04:11:23.484Z,9.48
2022-11-16T04:14:27.665Z,9.85
2022-11-16T04:17:14.024Z,9.25
2022-11-16T04:20:01.107Z,9.05
2022-11-16T04:23:00.242Z,9.00
2022-11-16T04:25:32.237Z,9.27
2022-11-16T04:28:14.332Z,9.43
2022-11-16T04:31:10.757Z,9.43
2022-11-16T04:33:59.407Z,8.15
2022-11-16T04:36:46.235Z,8.93
2022-11-16T04:39:13.560Z,9.70
2022-11-16T04:41:59.535Z,9.10
2022-11-16T04:44:49.348Z,9.68
2022-11-16T04:47:16.904Z,8.90
2022-11-16T04:49:43.892Z,8.93
2022-11-16T04:52:11.655Z,9.60
2022-11-16T04:54:39.408Z,10.07
2022-11-16T04:57:06.709Z,9.98
2022-11-16T04:59:34.446Z,9.90
2022-11-16T05:02:10.470Z,9.93
2022-11-16T05:04:53.778Z,10.18
2022-11-16T05:07:22.579Z,10.52
2022-11-16T05:09:51.299Z,10.60
2022-11-16T05:12:26.416Z,10.80
2022-11-16T05:14:57.658Z,10.13
2022-11-16T05:17:27.761Z,10.07
2022-11-16T05:20:15.612Z,10.13
2022-11-16T05:22:55.809Z,10.85
2022-11-16T05:25:24.662Z,10.40
2022-11-16T05:27:52.504Z,10.02
2022-11-16T05:30:19.573Z,10.32
2022-11-16T05:32:46.852Z,11.40
2022-11-16T05:35:15.621Z,9.63
2022-11-16T05:37:43.207Z,10.60
2022-11-16T05:40:11.147Z,12.13
2022-11-16T05:42:44.391Z,11.15
2022-11-16T05:45:11.590Z,9.70
2022-11-16T05:47:39.744Z,11.10
2022-11-16T05:50:07.361Z,10.75
2022-11-16T05:52:39.263Z,10.52
2022-11-16T05:55:09.639Z,11.10
2022-11-16T05:57:42.091Z,10.20
2022-11-16T06:00:09.885Z,9.95
2022-11-16T06:02:45.180Z,11.68
2022-11-16T06:05:20.036Z,11.07
2022-11-16T06:07:47.772Z,11.57
2022-11-16T06:10:14.824Z,14.27
2022-11-16T06:12:44.160Z,10.65
2022-11-16T06:15:11.087Z,10.85
2022-11-16T06:17:38.077Z,11.35
2022-11-16T06:20:05.428Z,11.13
2022-11-16T06:22:32.434Z,11.40
2022-11-16T06:24:59.402Z,11.98
2022-11-16T06:27:26.802Z,11.68
2022-11-16T06:29:53.724Z,11.73
2022-11-16T06:32:21.804Z,11.85
2022-11-16T06:34:48.738Z,11.63
2022-11-16T06:37:15.889Z,10.73
2022-11-16T06:39:43.145Z,12.18
2022-11-16T06:42:10.496Z,11.45
2022-11-16T06:44:38.740Z,11.90
2022-11-16T06:47:07.874Z,11.73
2022-11-16T06:49:35.578Z,11.13
2022-11-16T06:52:08.365Z,11.25
2022-11-16T06:54:35.688Z,10.65
2022-11-16T06:57:02.958Z,12.23
2022-11-16T06:59:29.945Z,10.82
2022-11-16T07:01:57.108Z,12.35
2022-11-16T07:04:24.712Z,12.32
2022-11-16T07:06:56.056Z,14.45
2022-11-16T07:09:23.328Z,12.98
2022-11-16T07:11:50.530Z,14.48
2022-11-16T07:14:19.138Z,14.90
2022-11-16T07:16:46.346Z,15.18
2022-11-16T07:19:13.375Z,15.15
2022-11-16T07:21:41.631Z,13.88
2022-11-16T07:24:14.637Z,14.80
2022-11-16T07:26:42.628Z,14.85
2022-11-16T07:29:15.727Z,14.43
2022-11-16T07:31:59.570Z,14.30
2022-11-16T07:34:52.340Z,14.10
2022-11-16T07:37:20.165Z,14.25
2022-11-16T07:39:47.815Z,14.77
2022-11-16T07:42:15.323Z,15.02
2022-11-16T07:45:01.033Z,13.30
2022-11-16T07:47:27.992Z,11.73
2022-11-16T07:49:55.703Z,12.57
2022-11-16T07:52:28.360Z,13.40
2022-11-16T07:55:02.437Z,12.43
2022-11-16T07:57:31.630Z,12.27
2022-11-16T08:00:02.000Z,13.55
2022-11-16T08:02:40.744Z,13.45
2022-11-16T08:05:11.190Z,14.10
2022-11-16T08:07:39.612Z,12.43
2022-11-16T08:10:07.069Z,11.93
2022-11-16T08:12:34.602Z,12.30
2022-11-16T08:15:01.755Z,12.45
2022-11-16T08:17:32.281Z,12.35
2022-11-16T08:19:59.488Z,11.85
2022-11-16T08:22:26.464Z,12.50
2022-11-16T08:24:53.711Z,12.00
2022-11-16T08:27:20.727Z,12.57
2022-11-16T08:29:51.968Z,10.35
2022-11-16T08:32:18.973Z,10.82
2022-11-16T08:34:45.949Z,11.85
2022-11-16T08:37:13.467Z,11.13
2022-11-16T08:42:10.796Z,12.00
2022-11-16T08:44:39.224Z,12.02
2022-11-16T08:47:11.211Z,11.77
2022-11-16T08:49:49.704Z,11.07
2022-11-16T08:52:18.538Z,11.15
2022-11-16T08:54:47.234Z,11.70
2022-11-16T08:57:14.239Z,12.40
2022-11-16T08:59:42.939Z,11.50
2022-11-16T09:02:13.266Z,12.73
2022-11-16T09:04:40.748Z,11.75
2022-11-16T09:07:10.173Z,12.65
2022-11-16T09:09:37.119Z,12.45
2022-11-16T09:12:04.214Z,12.38
2022-11-16T09:14:31.129Z,11.60
2022-11-16T09:16:58.044Z,11.77
2022-11-16T09:19:24.913Z,12.48
2022-11-16T09:21:51.812Z,11.88
2022-11-16T09:24:18.696Z,11.27
2022-11-16T09:26:45.646Z,12.07
2022-11-16T09:29:14.857Z,10.15
2022-11-16T09:31:42.483Z,11.35
2022-11-16T09:34:09.443Z,10.10
2022-11-16T09:36:36.377Z,10.52
2022-11-16T09:39:28.791Z,9.02
2022-11-16T09:42:27.904Z,8.57
2022-11-16T09:45:48.675Z,9.38
2022-11-16T09:48:17.875Z,9.77
2022-11-16T09:50:56.101Z,9.32
2022-11-16T09:54:11.337Z,9.30
2022-11-16T09:56:41.787Z,8.18
2022-11-16T09:59:12.239Z,8.75
2022-11-16T10:01:50.860Z,8.48
2022-11-16T10:04:24.524Z,8.63
2022-11-16T10:07:13.487Z,8.40
2022-11-16T10:09:40.673Z,8.57
2022-11-16T10:12:34.520Z,8.68
2022-11-16T10:15:23.597Z,8.23
2022-11-16T10:18:05.311Z,7.30
2022-11-16T10:20:41.039Z,7.90
2022-11-16T10:23:34.450Z,7.38
2022-11-16T10:26:19.600Z,7.70
2022-11-16T10:28:46.447Z,7.78
2022-11-16T10:31:57.744Z,7.00
2022-11-16T10:34:30.426Z,7.43
2022-11-16T10:37:08.497Z,8.02
2022-11-16T10:39:41.001Z,8.20
2022-11-16T10:42:14.708Z,8.48
2022-11-16T10:44:46.691Z,8.85
2022-11-16T10:47:35.629Z,8.60
2022-11-16T10:50:17.613Z,7.65
2022-11-16T10:52:44.454Z,8.38
2022-11-16T10:55:15.630Z,8.32
2022-11-16T10:58:06.633Z,8.05
2022-11-16T11:00:40.317Z,7.78
2022-11-16T11:03:09.652Z,7.65
2022-11-16T11:05:37.117Z,7.57
2022-11-16T11:08:24.051Z,6.93
2022-11-16T11:11:01.766Z,7.30
2022-11-16T11:13:29.559Z,7.13
2022-11-16T11:16:25.928Z,6.82
2022-11-16T11:18:52.779Z,7.18
2022-11-16T11:21:28.529Z,7.78
2022-11-16T11:24:06.187Z,6.80
2022-11-16T11:26:49.224Z,7.10
2022-11-16T11:29:40.382Z,7.00
2022-11-16T11:32:18.151Z,7.78
2022-11-16T11:34:53.970Z,7.80
2022-11-16T11:37:33.180Z,6.90
2022-11-16T11:40:24.077Z,7.35
2022-11-16T11:42:56.919Z,7.80
2022-11-16T11:45:49.995Z,6.35
2022-11-16T11:48:48.002Z,7.18
2022-11-16T11:51:33.657Z,7.70
2022-11-16T11:54:04.112Z,6.90
2022-11-16T11:56:34.189Z,6.68
2022-11-16T11:59:04.419Z,8.05
2022-11-16T12:01:50.136Z,7.80
2022-11-16T12:04:35.137Z,7.22
2022-11-16T12:07:30.095Z,6.38
2022-11-16T12:10:18.397Z,6.72
2022-11-16T12:13:00.628Z,5.57
2022-11-16T12:15:58.356Z,7.63
2022-11-16T12:18:40.497Z,6.00
2022-11-16T12:21:20.140Z,5.90
2022-11-16T12:23:53.084Z,6.22
2022-11-16T12:26:35.702Z,6.43
2022-11-16T12:29:27.408Z,6.65
2022-11-16T12:32:33.395Z,5.38
2022-11-16T12:35:15.873Z,5.38
2022-11-16T12:38:10.780Z,5.65
2022-11-16T12:41:03.817Z,5.97
2022-11-16T12:44:02.932Z,6.18
2022-11-16T12:46:48.569Z,6.18
2022-11-16T12:49:42.741Z,5.43
2022-11-16T12:52:34.560Z,6.10
2022-11-16T12:55:25.965Z,6.30
2022-11-16T12:58:17.134Z,6.32
2022-11-16T13:01:16.408Z,7.45
2022-11-16T13:03:46.994Z,5.93
2022-11-16T13:08:48.882Z,6.77
2022-11-16T13:11:27.512Z,6.72
2022-11-16T13:14:02.105Z,6.22
2022-11-16T13:16:29.731Z,6.78
2022-11-16T13:18:58.177Z,7.13
2022-11-16T13:22:03.685Z,7.38
2022-11-16T13:24:35.061Z,5.93
2022-11-16T13:27:20.501Z,6.97
2022-11-16T13:30:05.836Z,7.90
2022-11-16T13:32:32.834Z,10.20
2022-11-16T13:35:03.882Z,7.85
2022-11-16T13:37:37.659Z,9.68
2022-11-16T13:40:04.803Z,9.45
2022-11-16T13:42:43.928Z,8.10
2022-11-16T13:45:21.382Z,8.15
2022-11-16T13:47:54.682Z,13.35
2022-11-16T13:50:46.798Z,13.77
2022-11-16T13:56:10.645Z,13.18
2022-11-16T13:58:44.175Z,12.93
2022-11-16T14:01:15.859Z,9.32
2022-11-16T14:04:09.195Z,9.25
2022-11-16T14:06:45.324Z,9.27
2022-11-16T14:09:44.598Z,7.82
2022-11-16T14:12:51.622Z,9.32
2022-11-16T14:15:20.463Z,10.82
2022-11-16T14:17:57.940Z,10.57
2022-11-16T14:20:58.029Z,10.68
2022-11-16T14:23:48.214Z,10.80
2022-11-16T14:26:33.653Z,9.55
2022-11-16T14:29:28.301Z,9.48
2022-11-16T14:31:57.774Z,10.88
2022-11-16T14:34:40.254Z,10.40
2022-11-16T14:37:14.754Z,11.18
2022-11-16T14:39:44.532Z,9.00
2022-11-16T14:42:22.226Z,9.77
2022-11-16T14:44:50.452Z,10.55
2022-11-16T14:47:26.075Z,10.48
2022-11-16T14:49:54.696Z,8.57
2022-11-16T14:52:36.740Z,10.30
2022-11-16T14:55:07.978Z,9.45
2022-11-16T14:57:35.601Z,8.90
2022-11-16T15:00:19.207Z,9.68
2022-11-16T15:02:59.137Z,9.32
2022-11-16T15:05:34.806Z,10.10
2022-11-16T15:08:16.306Z,10.30
2022-11-16T15:10:51.102Z,10.13
2022-11-16T15:13:23.190Z,9.68
2022-11-16T15:16:07.967Z,9.45
2022-11-16T15:18:35.034Z,9.95
2022-11-16T15:21:02.254Z,10.77
2022-11-16T15:23:31.072Z,10.10
2022-11-16T15:26:00.381Z,11.23
2022-11-16T15:28:32.629Z,10.57
2022-11-16T15:31:04.963Z,10.25
2022-11-16T15:33:36.954Z,11.23
2022-11-16T15:36:38.014Z,10.05
2022-11-16T15:39:11.280Z,11.18
2022-11-16T15:41:39.634Z,10.80
2022-11-16T15:44:14.623Z,12.27
2022-11-16T15:46:48.807Z,12.38
2022-11-16T15:49:30.448Z,12.85
2022-11-16T15:52:02.228Z,13.07
2022-11-16T15:54:53.222Z,12.55
2022-11-16T15:57:23.897Z,11.80
2022-11-16T15:59:56.785Z,12.15
2022-11-16T16:02:27.796Z,10.85
2022-11-16T16:04:55.126Z,12.50
2022-11-16T16:07:42.522Z,11.85
2022-11-16T16:10:18.811Z,10.23
2022-11-16T16:12:54.081Z,10.25
2022-11-16T16:15:30.616Z,9.38
2022-11-16T16:18:00.886Z,10.85
2022-11-16T16:20:32.451Z,10.65
2022-11-16T16:23:20.785Z,10.43
2022-11-16T16:25:50.644Z,10.63
2022-11-16T16:28:19.349Z,11.02
2022-11-16T16:30:46.515Z,10.18
2022-11-16T16:33:19.794Z,11.05
2022-11-16T16:35:49.878Z,10.27
2022-11-16T16:38:17.054Z,11.55
2022-11-16T16:40:44.069Z,11.38
2022-11-16T16:43:11.599Z,12.27
2022-11-16T16:45:43.956Z,12.27
2022-11-16T16:48:14.506Z,12.50
2022-11-16T16:53:12.618Z,13.40
2022-11-16T16:55:39.825Z,13.30
2022-11-16T16:58:06.877Z,11.45
2022-11-16T17:00:34.276Z,11.68
2022-11-16T17:03:01.557Z,11.95
2022-11-16T17:05:30.781Z,12.23
2022-11-16T17:07:57.810Z,11.95
2022-11-16T17:10:25.012Z,13.10
2022-11-16T17:12:56.321Z,12.23
2022-11-16T17:15:24.514Z,11.80
2022-11-16T17:17:51.616Z,12.52
2022-11-16T17:20:19.386Z,11.90
2022-11-16T17:22:47.259Z,11.20
2022-11-16T17:25:15.628Z,11.80
2022-11-16T17:27:44.168Z,11.38
2022-11-16T17:30:13.690Z,10.95
2022-11-16T17:32:40.866Z,10.82
2022-11-16T17:35:08.440Z,11.75
2022-11-16T17:37:35.519Z,12.25
2022-11-16T17:40:02.603Z,11.40
2022-11-16T17:42:33.084Z,11.57
2022-11-16T17:45:00.139Z,11.68
2022-11-16T17:47:27.297Z,12.88
2022-11-16T17:49:54.456Z,11.18
2022-11-16T17:52:21.543Z,10.18
2022-11-16T17:54:49.353Z,11.32
2022-11-16T17:57:18.410Z,11.73
2022-11-16T17:59:45.525Z,11.23
2022-11-16T18:02:14.099Z,9.98
2022-11-16T18:04:42.276Z,11.10
2022-11-16T18:07:10.688Z,10.65
2022-11-16T18:09:37.847Z,10.15
2022-11-16T18:12:05.100Z,12.43
2022-11-16T18:14:32.218Z,12.57
2022-11-16T18:16:59.234Z,11.45
2022-11-16T18:19:26.274Z,11.60
2022-11-16T18:21:53.218Z,12.68
2022-11-16T18:24:20.291Z,12.05
2022-11-16T18:26:47.367Z,12.15
2022-11-16T18:29:16.533Z,12.75
2022-11-16T18:31:44.542Z,12.77
2022-11-16T18:34:14.424Z,13.35
2022-11-16T18:36:41.656Z,13.95
2022-11-16T18:39:08.578Z,14.00
2022-11-16T18:41:35.695Z,13.35
2022-11-16T18:44:04.180Z,13.65
2022-11-16T18:46:32.755Z,15.60
2022-11-16T18:49:00.133Z,14.57
2022-11-16T18:51:28.432Z,14.70
2022-11-16T18:53:56.041Z,15.82
2022-11-16T18:56:24.024Z,15.73
2022-11-16T18:58:52.949Z,16.20
2022-11-16T19:01:23.315Z,17.02
2022-11-16T19:03:51.837Z,16.33
2022-11-16T19:06:19.296Z,15.45
2022-11-16T19:08:52.126Z,16.35
2022-11-16T19:11:23.501Z,17.08
2022-11-16T19:13:54.428Z,16.38
2022-11-16T19:16:22.185Z,16.27
2022-11-16T19:18:49.331Z,16.33
2022-11-16T19:21:20.167Z,15.32
2022-11-16T19:23:52.656Z,14.30
2022-11-16T19:26:22.578Z,15.10
2022-11-16T19:28:51.063Z,16.17
2022-11-16T19:31:28.915Z,14.70
2022-11-16T19:33:56.874Z,14.80
2022-11-16T19:36:25.796Z,14.00
2022-11-16T19:38:53.402Z,12.77
2022-11-16T19:41:22.646Z,13.68
2022-11-16T19:43:52.801Z,13.63
2022-11-16T19:46:24.403Z,13.10
2022-11-16T19:48:52.531Z,13.00
2022-11-16T19:51:25.325Z,12.98
2022-11-16T19:53:52.867Z,12.65
2022-11-16T19:56:23.165Z,12.77
2022-11-16T19:58:50.187Z,13.43
2022-11-16T20:01:27.689Z,12.60
2022-11-16T20:03:56.973Z,12.63
2022-11-16T20:06:30.288Z,12.13
2022-11-16T20:09:00.802Z,11.95
2022-11-16T20:11:30.031Z,11.18
2022-11-16T20:13:58.676Z,12.23
2022-11-16T20:16:35.373Z,11.73
2022-11-16T20:19:06.394Z,10.90
2022-11-16T20:21:38.545Z,11.23
2022-11-16T20:24:07.524Z,10.68
2022-11-16T20:26:39.384Z,11.80
2022-11-16T20:29:06.340Z,11.95
2022-11-16T20:31:33.923Z,12.32
2022-11-16T20:34:03.597Z,12.32
2022-11-16T20:36:32.948Z,12.32
2022-11-16T20:39:01.689Z,13.60
2022-11-16T20:41:33.657Z,11.90
2022-11-16T20:44:01.949Z,13.18
2022-11-16T20:46:31.213Z,13.15
2022-11-16T20:49:00.890Z,12.80
2022-11-16T20:51:28.942Z,13.20
2022-11-16T20:53:56.392Z,12.40
2022-11-16T20:56:23.538Z,13.27
2022-11-16T20:58:50.700Z,12.20
2022-11-16T21:01:28.923Z,12.70
2022-11-16T21:03:57.069Z,13.73
2022-11-16T21:06:24.476Z,13.32
2022-11-16T21:08:52.132Z,12.75
2022-11-16T21:11:22.866Z,13.27
2022-11-16T21:14:19.223Z,13.65
2022-11-16T21:16:46.331Z,13.30
2022-11-16T21:19:13.374Z,13.32
2022-11-16T21:21:41.022Z,13.77
2022-11-16T21:24:11.071Z,14.95
2022-11-16T21:26:38.522Z,14.90
2022-11-16T21:29:05.864Z,13.65
2022-11-16T21:31:36.252Z,14.85
2022-11-16T21:34:03.700Z,14.75
2022-11-16T21:36:32.194Z,13.93
2022-11-16T21:38:59.590Z,14.20
2022-11-16T21:41:27.580Z,15.50
2022-11-16T21:43:54.966Z,15.50
2022-11-16T21:46:26.802Z,15.15
2022-11-16T21:48:56.752Z,14.43
2022-11-16T21:51:26.433Z,15.23
2022-11-16T21:53:53.819Z,15.07
2022-11-16T21:56:23.772Z,18.85
2022-11-16T21:58:53.042Z,16.52
2022-11-16T22:01:21.576Z,15.30
2022-11-16T22:04:09.271Z,15.13
2022-11-16T22:06:54.771Z,14.90
2022-11-16T22:09:21.972Z,15.55
2022-11-16T22:11:49.092Z,14.52
2022-11-16T22:14:16.078Z,13.23
2022-11-16T22:16:43.145Z,14.10
2022-11-16T22:19:10.182Z,14.65
2022-11-16T22:21:37.162Z,13.75
2022-11-16T22:24:04.273Z,14.00
2022-11-16T22:26:31.477Z,14.05
2022-11-16T22:28:59.024Z,12.85
2022-11-16T22:31:26.272Z,13.85
2022-11-16T22:33:56.408Z,12.98
2022-11-16T22:36:23.532Z,14.05
2022-11-16T22:38:50.555Z,13.55
2022-11-16T22:41:17.685Z,12.75
2022-11-16T22:43:44.730Z,13.57
2022-11-16T22:46:11.955Z,12.98
2022-11-16T22:48:41.189Z,14.63
2022-11-16T22:51:22.458Z,13.45
2022-11-16T22:53:57.108Z,14.05
2022-11-16T22:56:25.242Z,13.05
2022-11-16T22:58:52.717Z,13.32
2022-11-16T23:01:25.649Z,13.93
2022-11-16T23:03:52.845Z,13.50
2022-11-16T23:06:20.082Z,14.23
2022-11-16T23:08:47.813Z,12.98
2022-11-16T23:11:41.367Z,15.30
2022-11-16T23:14:30.766Z,15.18
2022-11-16T23:16:58.195Z,13.90
2022-11-16T23:19:44.086Z,14.75
2022-11-16T23:22:38.709Z,14.18
2022-11-16T23:25:26.846Z,13.20
2022-11-16T23:27:56.603Z,13.48
2022-11-16T23:30:24.355Z,14.13
2022-11-16T23:32:51.784Z,14.07
2022-11-16T23:35:19.166Z,14.13
2022-11-16T23:37:53.813Z,14.20
2022-11-16T23:40:44.814Z,12.85
2022-11-16T23:43:42.754Z,13.25
2022-11-16T23:46:09.833Z,13.77
2022-11-16T23:48:36.855Z,12.73
2022-11-16T23:51:03.966Z,13.73
2022-11-16T23:53:31.012Z,13.55
2022-11-16T23:56:34.274Z,13.15
2022-11-16T23:59:22.430Z,14.68
